Time;durP1;ratioP1;P1;durP2;ratioP2;P2;SDS_P1;SDS_P2;PMS_P1;PMS_P2;Temp;Humidity;BMP_temperature;BMP_pressure;BME280_temperature;BME280_humidity;BME280_pressure;Samples;Min_cycle;Max_cycle;Signal;HPM_P1;HPM_P2
2023/05/19 00:00:18;;;;;;;31.65;23.83;;;29.80;87.50;;;;;;1980121;71;21112;-87
2023/05/19 00:02:59;;;;;;;30.12;23.75;;;29.90;86.80;;;;;;1981212;71;21111;-87
2023/05/19 00:05:39;;;;;;;32.00;23.02;;;29.90;86.60;;;;;;2003087;71;21172;-87
2023/05/19 00:08:16;;;;;;;30.60;23.65;;;29.90;86.40;;;;;;1987283;71;21202;-86
2023/05/19 00:10:49;;;;;;;30.12;23.50;;;29.80;86.80;;;;;;1990445;70;21190;-87
2023/05/19 00:13:23;;;;;;;34.67;24.37;;;29.80;86.50;;;;;;1994900;70;21060;-87
2023/05/19 00:15:57;;;;;;;31.20;24.05;;;29.90;86.50;;;;;;2000461;70;21870;-86
2023/05/19 00:18:28;;;;;;;32.70;23.50;;;29.90;86.30;;;;;;1979915;71;21127;-87
2023/05/19 00:21:01;;;;;;;31.73;24.63;;;29.90;86.10;;;;;;1997843;71;21174;-86
2023/05/19 00:23:42;;;;;;;32.90;25.40;;;29.90;86.40;;;;;;2019294;69;21181;-86
2023/05/19 00:26:23;;;;;;;33.23;25.05;;;29.90;86.10;;;;;;1954411;71;21182;-85
2023/05/19 00:28:57;;;;;;;29.65;24.70;;;30.00;86.10;;;;;;2007802;69;21168;-87
2023/05/19 00:31:30;;;;;;;29.27;23.62;;;30.00;86.20;;;;;;1996084;69;21132;-87
2023/05/19 00:34:01;;;;;;;32.55;24.50;;;30.10;85.60;;;;;;1966655;71;21108;-85
2023/05/19 00:36:35;;;;;;;35.03;24.63;;;30.10;85.60;;;;;;1991652;70;21664;-75
2023/05/19 00:39:09;;;;;;;33.80;24.87;;;30.20;86.00;;;;;;1987403;70;21116;-75
2023/05/19 00:41:43;;;;;;;31.60;24.12;;;30.20;85.70;;;;;;1980214;70;21690;-77
2023/05/19 00:44:14;;;;;;;41.92;24.52;;;30.20;85.80;;;;;;1983799;71;21185;-77
2023/05/19 00:46:46;;;;;;;38.02;24.95;;;30.20;86.10;;;;;;1984994;70;21124;-76
2023/05/19 00:49:20;;;;;;;34.13;23.45;;;30.30;86.20;;;;;;1973699;70;21196;-76
2023/05/19 00:51:53;;;;;;;36.25;24.90;;;30.30;86.30;;;;;;1998291;70;21103;-73
2023/05/19 00:54:26;;;;;;;33.08;24.20;;;30.40;86.20;;;;;;1990959;70;21216;-75
2023/05/19 00:57:00;;;;;;;31.00;23.52;;;30.40;86.10;;;;;;1997504;70;21264;-74
2023/05/19 00:59:37;;;;;;;29.42;23.52;;;30.40;86.50;;;;;;2018695;70;21256;-80
2023/05/19 01:02:10;;;;;;;34.25;25.20;;;30.50;86.40;;;;;;2000078;70;21119;-77
2023/05/19 01:04:42;;;;;;;34.30;23.70;;;30.50;86.30;;;;;;1975439;70;22133;-78
2023/05/19 01:07:15;;;;;;;29.77;23.25;;;30.50;86.30;;;;;;1974610;70;21069;-77
2023/05/19 01:09:48;;;;;;;30.40;23.45;;;30.60;86.10;;;;;;1993715;70;21208;-76
2023/05/19 01:12:19;;;;;;;33.50;23.85;;;30.80;86.10;;;;;;1994990;70;21142;-74
2023/05/19 01:14:52;;;;;;;35.73;23.90;;;30.80;85.50;;;;;;1988925;70;21168;-76
2023/05/19 01:17:43;;;;;;;35.05;23.85;;;31.00;84.40;;;;;;1977274;70;21638;-79
2023/05/19 01:20:19;;;;;;;31.65;23.40;;;31.10;83.90;;;;;;1986013;70;21179;-77
2023/05/19 01:23:00;;;;;;;35.50;24.00;;;31.10;83.60;;;;;;1973597;70;21107;-78
2023/05/19 01:26:03;;;;;;;35.30;23.32;;;31.20;83.50;;;;;;1968766;70;21594;-76
2023/05/19 01:29:00;;;;;;;32.70;22.67;;;31.30;82.90;;;;;;1983616;70;21241;-79
2023/05/19 01:31:33;;;;;;;37.15;24.72;;;31.40;82.70;;;;;;1985828;70;21057;-82
2023/05/19 01:34:23;;;;;;;40.03;24.05;;;31.50;82.50;;;;;;1975229;70;21167;-82
2023/05/19 01:36:58;;;;;;;38.75;24.55;;;31.60;82.00;;;;;;1979467;71;21578;-80
2023/05/19 01:39:40;;;;;;;37.65;25.05;;;31.60;81.90;;;;;;1976458;70;21168;-79
2023/05/19 01:42:12;;;;;;;34.40;23.45;;;31.70;80.70;;;;;;1980457;70;21091;-80
2023/05/19 01:44:48;;;;;;;30.08;22.20;;;31.80;80.90;;;;;;1976770;70;22021;-79
2023/05/19 01:47:23;;;;;;;31.93;22.87;;;31.90;79.10;;;;;;1987123;71;21097;-80
2023/05/19 01:49:57;;;;;;;36.13;23.98;;;32.00;79.90;;;;;;1952453;71;21232;-80
2023/05/19 01:52:30;;;;;;;29.50;22.80;;;32.10;79.60;;;;;;1987113;71;21183;-80
2023/05/19 01:55:02;;;;;;;28.32;23.12;;;32.20;79.50;;;;;;1977624;70;21587;-80
2023/05/19 01:58:03;;;;;;;31.10;23.07;;;32.30;78.80;;;;;;1972602;71;21148;-80
2023/05/19 02:01:03;;;;;;;30.45;21.57;;;32.40;78.10;;;;;;1981321;70;21187;-79
2023/05/19 02:03:43;;;;;;;30.25;22.20;;;32.50;77.00;;;;;;1981793;70;21084;-80
2023/05/19 02:06:49;;;;;;;32.48;23.40;;;32.60;76.90;;;;;;1979737;70;21222;-79
2023/05/19 02:09:27;;;;;;;;;;;32.70;77.30;;;;;;1977634;70;21163;-83
2023/05/19 02:12:18;;;;;;;26.85;22.48;;;32.80;77.00;;;;;;1956698;71;20174;-80
2023/05/19 02:15:13;;;;;;;29.57;21.42;;;32.90;76.10;;;;;;1976337;70;21202;-79
2023/05/19 02:17:53;;;;;;;31.12;22.73;;;32.90;75.80;;;;;;1982635;71;21521;-80
2023/05/19 02:20:27;;;;;;;27.87;21.93;;;33.10;75.80;;;;;;1978532;70;21067;-82
2023/05/19 02:22:58;;;;;;;30.68;22.00;;;33.20;74.70;;;;;;1998110;70;21105;-82
2023/05/19 02:25:31;;;;;;;30.85;21.60;;;33.30;75.10;;;;;;1985081;71;21147;-84
2023/05/19 02:28:05;;;;;;;29.87;21.48;;;33.40;74.40;;;;;;1998315;71;21132;-84
2023/05/19 02:30:38;;;;;;;27.10;19.50;;;33.50;73.10;;;;;;1978945;71;21162;-82
2023/05/19 02:33:11;;;;;;;29.35;21.23;;;33.60;71.50;;;;;;1997155;70;21130;-76
2023/05/19 02:35:42;;;;;;;28.38;21.48;;;33.70;72.50;;;;;;1993864;71;21248;-77
2023/05/19 02:38:15;;;;;;;25.65;20.68;;;33.70;73.00;;;;;;1980980;71;21071;-78
2023/05/19 02:40:52;;;;;;;25.35;20.92;;;33.80;72.50;;;;;;1993162;71;21065;-78
2023/05/19 02:43:25;;;;;;;30.37;21.95;;;33.90;72.00;;;;;;2002438;70;21046;-82
2023/05/19 02:45:59;;;;;;;28.55;20.55;;;34.00;71.90;;;;;;1985431;71;21081;-79
2023/05/19 02:48:34;;;;;;;29.67;21.25;;;34.00;71.80;;;;;;1971708;70;21206;-81
2023/05/19 02:51:08;;;;;;;27.13;20.72;;;34.10;71.10;;;;;;1987279;71;21184;-79
2023/05/19 02:53:44;;;;;;;;;;;34.20;70.70;;;;;;2012968;70;21546;-81
2023/05/19 02:56:15;;;;;;;29.63;21.40;;;34.20;71.30;;;;;;1977976;71;20118;-80
2023/05/19 02:58:48;;;;;;;39.38;22.50;;;34.30;70.90;;;;;;1985816;70;21170;-85
2023/05/19 03:01:21;;;;;;;31.33;20.60;;;34.40;71.10;;;;;;1978184;71;21119;-79
2023/05/19 03:03:54;;;;;;;30.80;21.82;;;34.50;70.40;;;;;;1989656;71;21112;-83
2023/05/19 03:06:31;;;;;;;25.82;20.43;;;34.60;70.30;;;;;;1992887;71;21662;-81
2023/05/19 03:09:04;;;;;;;27.67;20.50;;;34.60;70.30;;;;;;1987385;70;21097;-84
2023/05/19 03:11:37;;;;;;;33.92;21.42;;;34.70;70.00;;;;;;1961965;71;21068;-84
2023/05/19 03:14:12;;;;;;;32.65;20.35;;;34.80;69.80;;;;;;1960954;72;21188;-82
2023/05/19 03:16:44;;;;;;;23.92;18.90;;;34.90;69.80;;;;;;1981643;71;21598;-81
2023/05/19 03:19:16;;;;;;;28.23;20.50;;;35.00;69.00;;;;;;1979128;71;21132;-80
2023/05/19 03:21:49;;;;;;;27.30;21.35;;;;;;;;;;1985071;70;21136;-80
2023/05/19 03:24:24;;;;;;;27.60;20.43;;;35.10;67.20;;;;;;1981937;70;21108;-81
2023/05/19 03:26:57;;;;;;;29.95;21.55;;;35.10;68.40;;;;;;1973150;71;21103;-81
2023/05/19 03:29:29;;;;;;;26.42;20.75;;;35.10;68.30;;;;;;1961270;72;21249;-82
2023/05/19 03:32:03;;;;;;;26.75;20.23;;;35.20;68.40;;;;;;1982090;71;21124;-80
2023/05/19 03:34:35;;;;;;;28.02;20.68;;;35.20;66.70;;;;;;1983173;71;21727;-80
2023/05/19 03:37:09;;;;;;;27.37;20.08;;;35.30;67.40;;;;;;1976968;71;21188;-80
2023/05/19 03:39:42;;;;;;;24.20;19.10;;;35.30;68.10;;;;;;1978740;71;21068;-79
2023/05/19 03:42:16;;;;;;;28.15;20.80;;;35.40;68.30;;;;;;1974895;71;21068;-80
2023/05/19 03:44:50;;;;;;;27.07;20.02;;;35.50;67.90;;;;;;1968153;71;21524;-83
2023/05/19 03:47:24;;;;;;;27.48;20.72;;;35.50;67.40;;;;;;1975804;71;21116;-77
2023/05/19 03:49:58;;;;;;;31.15;20.17;;;35.60;67.80;;;;;;1984544;71;21162;-77
2023/05/19 03:52:35;;;;;;;23.32;19.48;;;35.80;66.60;;;;;;1974450;71;21116;-84
2023/05/19 03:55:09;;;;;;;24.45;19.98;;;35.80;65.30;;;;;;1984806;71;21569;-81
2023/05/19 03:57:44;;;;;;;25.97;19.37;;;35.90;66.20;;;;;;1988539;71;21852;-79
2023/05/19 04:00:18;;;;;;;28.65;18.55;;;35.90;64.70;;;;;;1981250;71;21674;-80
2023/05/19 04:02:50;;;;;;;26.40;18.65;;;35.90;63.70;;;;;;1985817;71;21089;-77
2023/05/19 04:05:22;;;;;;;30.15;18.77;;;36.00;63.70;;;;;;1989904;71;21167;-77
2023/05/19 04:07:54;;;;;;;30.50;18.27;;;36.00;64.40;;;;;;1997755;70;21190;-82
2023/05/19 04:10:27;;;;;;;26.70;17.90;;;36.10;64.20;;;;;;1987106;70;22168;-80
2023/05/19 04:13:02;;;;;;;23.07;18.10;;;36.10;62.90;;;;;;1985555;71;21498;-80
2023/05/19 04:15:40;;;;;;;27.00;18.85;;;36.20;62.90;;;;;;1966223;71;21096;-77
2023/05/19 04:18:12;;;;;;;23.38;18.60;;;36.20;62.00;;;;;;1968903;71;21154;-77
2023/05/19 04:20:44;;;;;;;20.90;17.40;;;36.30;63.00;;;;;;1971106;71;21233;-81
2023/05/19 04:23:17;;;;;;;26.52;18.32;;;36.40;62.30;;;;;;1987454;71;21143;-77
2023/05/19 04:25:48;;;;;;;27.32;18.23;;;36.40;62.00;;;;;;1987192;71;21083;-79
2023/05/19 04:28:20;;;;;;;24.27;18.17;;;36.50;62.30;;;;;;2013683;70;21155;-79
2023/05/19 04:30:53;;;;;;;18.73;16.80;;;36.60;61.10;;;;;;2001404;70;21131;-80
2023/05/19 04:33:28;;;;;;;26.27;17.70;;;36.60;60.60;;;;;;2008641;70;21162;-78
2023/05/19 04:36:04;;;;;;;23.92;17.80;;;36.70;59.70;;;;;;1984253;70;21236;-79
2023/05/19 04:38:35;;;;;;;19.82;16.77;;;36.70;59.20;;;;;;1980634;71;21168;-77
2023/05/19 04:41:10;;;;;;;23.77;17.55;;;36.60;59.10;;;;;;1974316;71;21132;-81
2023/05/19 04:43:44;;;;;;;24.98;17.17;;;36.60;59.50;;;;;;1978612;71;21615;-80
2023/05/19 04:46:17;;;;;;;26.90;17.12;;;36.70;59.10;;;;;;1991228;70;21724;-79
2023/05/19 04:48:51;;;;;;;22.58;17.60;;;36.80;58.90;;;;;;1993669;71;21123;-81
2023/05/19 04:51:30;;;;;;;23.62;17.70;;;36.90;58.90;;;;;;1978029;71;21149;-79
2023/05/19 04:54:00;;;;;;;29.47;19.10;;;37.00;57.90;;;;;;1996482;70;21154;-81
2023/05/19 04:56:31;;;;;;;25.85;18.25;;;37.00;58.40;;;;;;1974498;71;21089;-82
2023/05/19 04:59:02;;;;;;;22.50;17.37;;;37.10;58.80;;;;;;1944284;71;21220;-82
2023/05/19 05:01:41;;;;;;;24.25;18.20;;;37.20;58.30;;;;;;1936996;72;21173;-82
2023/05/19 05:04:08;;;;;;;24.05;17.48;;;37.30;58.30;;;;;;1936706;73;21879;-83
2023/05/19 05:06:46;;;;;;;23.25;18.07;;;37.30;58.40;;;;;;1979017;71;21770;-76
2023/05/19 05:09:17;;;;;;;20.10;17.70;;;37.40;58.00;;;;;;1934187;72;21178;-77
2023/05/19 05:11:50;;;;;;;23.30;17.57;;;37.40;57.60;;;;;;1940336;72;21323;-76
2023/05/19 05:14:22;;;;;;;25.05;18.35;;;37.40;58.40;;;;;;1960888;72;21116;-81
2023/05/19 05:16:54;;;;;;;26.77;18.57;;;37.30;58.40;;;;;;1934256;72;21198;-79
2023/05/19 05:19:26;;;;;;;21.17;16.70;;;37.20;58.00;;;;;;1945507;72;21143;-81
2023/05/19 05:21:59;;;;;;;25.25;18.00;;;37.20;57.80;;;;;;1963231;72;21633;-79
2023/05/19 05:24:31;;;;;;;26.80;18.20;;;37.30;57.70;;;;;;1959849;72;21581;-78
2023/05/19 05:27:06;;;;;;;21.12;18.67;;;37.20;58.00;;;;;;1944165;72;21185;-76
2023/05/19 05:29:37;;;;;;;22.90;18.12;;;37.30;57.70;;;;;;1972792;72;21213;-81
2023/05/19 05:32:09;;;;;;;25.02;18.32;;;37.30;57.90;;;;;;1929249;71;21198;-82
2023/05/19 05:34:42;;;;;;;26.57;17.82;;;37.40;58.10;;;;;;1943621;73;21133;-82
2023/05/19 05:37:16;;;;;;;24.52;18.60;;;37.40;57.30;;;;;;1953902;72;21129;-80
2023/05/19 05:39:47;;;;;;;22.73;17.52;;;37.40;57.60;;;;;;1953988;72;21159;-80
2023/05/19 05:42:19;;;;;;;22.00;18.60;;;37.50;57.20;;;;;;1969404;72;21119;-77
2023/05/19 05:44:57;;;;;;;25.77;18.12;;;37.50;57.40;;;;;;1962243;72;21180;-77
2023/05/19 05:47:29;;;;;;;22.45;18.40;;;37.60;57.50;;;;;;1965893;72;21141;-78
2023/05/19 05:50:05;;;;;;;24.20;18.02;;;37.60;58.20;;;;;;1937853;72;21085;-83
2023/05/19 05:52:39;;;;;;;26.07;18.45;;;37.70;58.30;;;;;;1959507;72;21056;-83
2023/05/19 05:55:11;;;;;;;26.02;18.87;;;37.70;58.80;;;;;;1982176;71;21111;-81
2023/05/19 05:57:47;;;;;;;26.37;18.55;;;37.50;58.70;;;;;;1980094;71;21145;-83
2023/05/19 06:00:22;;;;;;;35.73;20.00;;;37.30;58.90;;;;;;1928142;71;21437;-82
2023/05/19 06:02:55;;;;;;;25.30;18.50;;;37.20;59.40;;;;;;1938825;71;21083;-79
2023/05/19 06:05:28;;;;;;;28.15;20.37;;;37.00;60.10;;;;;;1947880;73;21484;-84
2023/05/19 06:08:02;;;;;;;26.10;19.23;;;36.90;61.00;;;;;;1953301;73;21088;-82
2023/05/19 06:10:37;;;;;;;26.27;19.37;;;36.80;61.00;;;;;;1951497;72;21163;-82
2023/05/19 06:13:09;;;;;;;22.62;19.10;;;36.80;60.50;;;;;;1949898;72;21241;-80
2023/05/19 06:15:42;;;;;;;24.95;19.45;;;36.80;60.60;;;;;;1952865;72;21261;-80
2023/05/19 06:18:15;;;;;;;29.87;18.92;;;36.70;61.20;;;;;;1952123;73;21152;-79
2023/05/19 06:20:53;;;;;;;28.05;18.67;;;36.70;59.80;;;;;;1960688;72;21135;-76
2023/05/19 06:23:27;;;;;;;29.30;19.52;;;36.70;59.60;;;;;;1966640;71;21101;-78
2023/05/19 06:26:05;;;;;;;23.80;18.52;;;36.70;59.70;;;;;;1965219;72;21652;-76
2023/05/19 06:28:40;;;;;;;23.32;18.32;;;36.80;59.70;;;;;;1941592;72;21154;-76
2023/05/19 06:31:13;;;;;;;25.80;18.75;;;36.90;59.40;;;;;;1931619;72;21382;-77
2023/05/19 06:33:46;;;;;;;34.67;18.77;;;36.90;58.90;;;;;;1963128;71;21127;-77
2023/05/19 06:36:17;;;;;;;24.25;17.92;;;36.90;59.00;;;;;;1954691;72;21150;-87
2023/05/19 06:38:52;;;;;;;29.07;20.00;;;36.90;58.20;;;;;;1959203;72;21511;-84
2023/05/19 06:41:31;;;;;;;21.73;17.00;;;36.90;59.00;;;;;;1942945;72;21112;-81
2023/05/19 06:44:06;;;;;;;26.68;19.07;;;37.00;58.30;;;;;;1963205;72;21107;-81
2023/05/19 06:46:37;;;;;;;25.25;17.95;;;36.90;57.90;;;;;;1971284;72;21148;-81
2023/05/19 06:49:11;;;;;;;24.30;17.40;;;36.90;57.60;;;;;;1963523;72;21068;-79
2023/05/19 06:51:44;;;;;;;26.33;18.02;;;36.90;57.10;;;;;;1970733;72;21191;-77
2023/05/19 06:54:21;;;;;;;21.30;17.23;;;36.90;56.90;;;;;;1976256;71;21212;-81
2023/05/19 06:56:53;;;;;;;22.00;17.00;;;36.90;56.60;;;;;;1968253;71;21116;-79
2023/05/19 06:59:24;;;;;;;25.02;16.82;;;36.90;56.60;;;;;;1972030;71;21196;-77
2023/05/19 07:01:58;;;;;;;23.30;16.90;;;36.90;56.40;;;;;;1949239;73;21248;-80
2023/05/19 07:04:32;;;;;;;24.02;17.02;;;36.80;57.20;;;;;;1994058;71;21181;-83
2023/05/19 07:07:05;;;;;;;22.35;17.07;;;36.80;57.50;;;;;;1940517;73;21201;-79
2023/05/19 07:09:39;;;;;;;26.12;18.23;;;36.80;57.30;;;;;;1987261;71;21751;-83
2023/05/19 07:12:14;;;;;;;20.70;17.20;;;36.80;56.70;;;;;;1941296;72;21178;-79
2023/05/19 07:14:51;;;;;;;22.07;17.05;;;36.80;56.30;;;;;;1960955;72;21097;-83
2023/05/19 07:17:22;;;;;;;25.85;17.60;;;36.80;56.50;;;;;;1951149;72;21128;-79
2023/05/19 07:19:55;;;;;;;24.37;16.85;;;36.90;56.20;;;;;;1948637;72;21065;-75
2023/05/19 07:22:28;;;;;;;21.73;17.52;;;36.90;56.10;;;;;;1955595;72;21193;-78
2023/05/19 07:25:03;;;;;;;22.20;16.85;;;37.00;56.10;;;;;;1966618;71;21133;-78
2023/05/19 07:27:37;;;;;;;21.62;16.80;;;36.90;56.20;;;;;;1975981;71;21162;-81
2023/05/19 07:30:11;;;;;;;22.20;17.25;;;36.90;56.10;;;;;;1974392;71;21101;-77
2023/05/19 07:32:41;;;;;;;22.58;16.82;;;36.90;56.50;;;;;;1980173;71;21526;-79
2023/05/19 07:35:15;;;;;;;22.87;17.10;;;36.90;55.90;;;;;;1957024;71;21126;-78
2023/05/19 07:37:52;;;;;;;21.73;15.15;;;36.90;56.20;;;;;;1989842;71;21615;-81
2023/05/19 07:40:25;;;;;;;27.65;18.82;;;36.80;54.50;;;;;;1968113;72;21247;-75
2023/05/19 07:42:59;;;;;;;21.25;16.17;;;36.90;53.90;;;;;;1956612;72;21090;-76
2023/05/19 07:45:32;;;;;;;28.75;15.85;;;36.90;53.40;;;;;;1951227;72;21198;-77
2023/05/19 07:48:03;;;;;;;26.60;16.32;;;37.00;52.00;;;;;;1965855;71;21110;-80
2023/05/19 07:50:38;;;;;;;26.67;17.50;;;37.00;53.10;;;;;;1933336;72;21538;-76
2023/05/19 07:53:12;;;;;;;27.87;17.32;;;37.00;53.50;;;;;;1974605;71;21180;-81
2023/05/19 07:55:47;;;;;;;21.85;15.65;;;37.10;53.90;;;;;;1945278;73;21106;-78
2023/05/19 07:58:20;;;;;;;21.40;15.70;;;37.10;52.90;;;;;;1933971;73;21153;-81
2023/05/19 08:00:55;;;;;;;19.35;15.58;;;37.20;53.50;;;;;;1949015;72;21179;-79
2023/05/19 08:03:27;;;;;;;28.27;15.83;;;37.20;52.10;;;;;;1991766;71;21061;-76
2023/05/19 08:05:58;;;;;;;19.20;14.80;;;37.20;52.50;;;;;;1987162;71;21078;-77
2023/05/19 08:08:32;;;;;;;21.37;16.30;;;37.20;51.20;;;;;;1988111;71;21190;-74
2023/05/19 08:11:05;;;;;;;22.73;15.53;;;37.20;51.90;;;;;;1959563;72;21111;-77
2023/05/19 08:13:39;;;;;;;22.05;15.38;;;37.20;52.60;;;;;;1955926;72;21185;-80
2023/05/19 08:16:10;;;;;;;22.07;16.55;;;37.30;51.60;;;;;;1959860;72;21197;-77
2023/05/19 08:18:41;;;;;;;33.42;16.40;;;37.30;51.30;;;;;;1953141;72;21069;-77
2023/05/19 08:21:13;;;;;;;23.40;17.45;;;37.40;51.00;;;;;;1961511;72;21614;-77
2023/05/19 08:23:46;;;;;;;21.95;16.55;;;37.40;51.70;;;;;;1945807;72;21151;-77
2023/05/19 08:26:18;;;;;;;27.30;16.25;;;37.40;53.10;;;;;;1967914;71;21133;-76
2023/05/19 08:28:49;;;;;;;25.72;16.02;;;37.40;52.30;;;;;;1965856;72;21147;-76
2023/05/19 08:31:21;;;;;;;18.75;15.50;;;37.40;52.80;;;;;;1951500;72;21464;-76
2023/05/19 08:33:52;;;;;;;22.15;15.98;;;37.40;52.20;;;;;;1960088;71;21309;-79
2023/05/19 08:36:24;;;;;;;22.48;14.80;;;37.40;52.30;;;;;;1959558;72;21212;-79
2023/05/19 08:38:57;;;;;;;20.85;15.80;;;37.40;51.70;;;;;;1934432;72;21172;-77
2023/05/19 08:41:29;;;;;;;21.02;15.40;;;37.30;51.70;;;;;;1930023;72;21143;-83
2023/05/19 08:44:00;;;;;;;23.77;15.43;;;37.30;51.60;;;;;;1955461;72;21544;-77
2023/05/19 08:46:31;;;;;;;24.72;15.53;;;37.20;52.10;;;;;;1957395;72;21162;-77
2023/05/19 08:49:15;;;;;;;23.25;17.17;;;37.20;52.20;;;;;;1957223;72;22009;-79
2023/05/19 08:52:04;;;;;;;20.32;15.80;;;37.20;53.00;;;;;;1944862;71;21275;-75
2023/05/19 08:54:38;;;;;;;25.72;17.25;;;37.10;52.50;;;;;;1959105;72;21197;-77
2023/05/19 08:57:10;;;;;;;22.15;16.90;;;37.10;52.50;;;;;;1960518;72;21214;-77
2023/05/19 08:59:43;;;;;;;24.65;16.27;;;37.10;53.10;;;;;;1955437;71;21421;-79
2023/05/19 09:02:15;;;;;;;20.70;15.98;;;37.00;53.20;;;;;;1956879;72;21154;-78
2023/05/19 09:04:47;;;;;;;21.50;16.37;;;37.00;54.00;;;;;;1953373;72;21257;-81
2023/05/19 09:07:19;;;;;;;20.17;16.17;;;37.00;54.00;;;;;;1965651;71;21111;-79
2023/05/19 09:09:51;;;;;;;19.75;16.10;;;37.00;54.00;;;;;;1983534;71;21077;-75
2023/05/19 09:12:22;;;;;;;20.77;15.72;;;36.90;53.40;;;;;;1948001;73;21133;-80
2023/05/19 09:14:54;;;;;;;28.30;17.57;;;36.90;53.40;;;;;;1972956;72;21201;-80
2023/05/19 09:17:25;;;;;;;24.15;17.42;;;36.90;54.70;;;;;;1982552;71;21129;-77
2023/05/19 09:19:56;;;;;;;23.52;16.30;;;36.90;54.50;;;;;;1982610;71;21131;-76
2023/05/19 09:22:29;;;;;;;23.80;17.05;;;36.90;54.20;;;;;;1920895;74;21206;-78
2023/05/19 09:25:00;;;;;;;22.25;16.32;;;36.90;54.20;;;;;;1954742;71;21105;-77
2023/05/19 09:27:34;;;;;;;21.37;17.75;;;36.80;54.20;;;;;;1964929;72;21131;-77
2023/05/19 09:30:09;;;;;;;21.75;17.25;;;36.90;54.80;;;;;;1970141;72;21130;-82
2023/05/19 09:32:40;;;;;;;25.90;17.50;;;36.80;55.10;;;;;;1961171;71;21208;-77
2023/05/19 09:35:15;;;;;;;23.80;18.10;;;36.80;54.80;;;;;;1966324;71;21083;-82
2023/05/19 09:37:45;;;;;;;21.97;17.30;;;36.80;55.00;;;;;;1935669;72;21097;-81
2023/05/19 09:40:16;;;;;;;25.52;17.62;;;36.80;54.50;;;;;;1944268;71;21582;-78
2023/05/19 09:42:47;;;;;;;21.87;17.20;;;36.80;54.60;;;;;;1970808;71;21604;-77
2023/05/19 09:47:57;;;;;;;21.60;16.37;;;36.70;54.80;;;;;;1957741;71;21098;-86
2023/05/19 09:50:50;;;;;;;27.67;16.37;;;36.70;55.00;;;;;;1953182;72;21196;-87
2023/05/19 09:53:26;;;;;;;24.37;16.48;;;36.70;55.10;;;;;;1980070;70;21140;-86
2023/05/19 09:55:58;;;;;;;33.63;17.35;;;36.70;55.30;;;;;;1962768;71;21129;-87
2023/05/19 09:58:36;;;;;;;25.55;16.30;;;36.70;55.30;;;;;;1942749;73;21409;-84
2023/05/19 10:01:12;;;;;;;20.62;16.48;;;36.70;55.20;;;;;;1940392;72;21080;-86
2023/05/19 10:03:44;;;;;;;24.70;16.80;;;36.70;55.30;;;;;;1939091;72;21687;-85
2023/05/19 10:06:22;;;;;;;24.05;17.20;;;36.60;55.40;;;;;;1983164;71;21052;-87
2023/05/19 10:08:56;;;;;;;23.25;18.10;;;36.60;56.10;;;;;;1959446;72;21214;-86
2023/05/19 10:11:38;;;;;;;24.35;17.55;;;36.60;56.50;;;;;;1917618;73;21568;-87
2023/05/19 10:14:05;;;;;;;21.37;16.57;;;36.60;55.90;;;;;;1981786;71;21104;-86
2023/05/19 10:16:40;;;;;;;25.80;17.87;;;36.60;55.60;;;;;;1984857;72;21094;-84
2023/05/19 10:19:12;;;;;;;23.70;17.30;;;36.60;56.00;;;;;;1947239;73;21116;-85
2023/05/19 10:21:44;;;;;;;26.23;16.07;;;36.50;55.50;;;;;;1944375;72;21124;-86
2023/05/19 10:24:17;;;;;;;20.37;16.37;;;36.50;55.60;;;;;;1958949;72;21173;-85
2023/05/19 10:27:00;;;;;;;21.48;17.50;;;36.50;55.90;;;;;;1971784;71;21131;-86
2023/05/19 10:29:34;;;;;;;23.95;18.42;;;36.50;56.30;;;;;;1971750;72;21181;-85
2023/05/19 10:32:13;;;;;;;25.62;18.42;;;36.40;57.40;;;;;;1956863;72;21664;-85
2023/05/19 10:35:21;;;;;;;28.02;18.52;;;36.40;57.50;;;;;;1981260;71;21174;-86
2023/05/19 10:38:00;;;;;;;23.30;18.32;;;36.40;57.40;;;;;;1990722;71;21166;-85
2023/05/19 10:40:51;;;;;;;29.20;17.55;;;36.30;57.00;;;;;;1964723;71;21148;-87
2023/05/19 10:43:44;;;;;;;29.52;19.30;;;36.30;57.10;;;;;;1972136;71;21191;-87
2023/05/19 10:46:15;;;;;;;30.80;19.02;;;36.30;57.70;;;;;;1967200;71;21104;-86
2023/05/19 10:48:51;;;;;;;28.75;19.23;;;36.30;57.70;;;;;;1972921;71;21603;-77
2023/05/19 10:51:33;;;;;;;33.45;20.68;;;36.30;57.90;;;;;;1951227;72;21579;-80
2023/05/19 10:54:24;;;;;;;34.48;19.60;;;36.30;58.20;;;;;;1952082;72;21099;-79
2023/05/19 10:56:56;;;;;;;25.90;18.15;;;36.20;58.10;;;;;;1948163;72;21113;-79
2023/05/19 10:59:36;;;;;;;24.23;18.87;;;36.20;58.30;;;;;;1971446;71;21133;-81
2023/05/19 11:02:08;;;;;;;23.42;20.00;;;36.20;58.70;;;;;;1979050;71;21220;-78
2023/05/19 11:04:57;;;;;;;30.75;20.10;;;36.10;59.10;;;;;;1929849;73;21059;-80
2023/05/19 11:07:28;;;;;;;29.20;19.92;;;36.10;59.40;;;;;;1979506;72;21060;-85
2023/05/19 11:10:00;;;;;;;26.55;19.92;;;36.00;60.60;;;;;;1965883;72;21668;-77
2023/05/19 11:12:33;;;;;;;27.87;19.90;;;35.90;59.90;;;;;;1961019;72;21127;-82
2023/05/19 11:15:10;;;;;;;33.40;21.48;;;35.90;60.20;;;;;;1958057;72;21192;-86
2023/05/19 11:17:44;;;;;;;31.60;21.50;;;35.90;60.20;;;;;;1970086;71;21119;-87
2023/05/19 11:20:26;;;;;;;28.00;21.35;;;35.90;60.40;;;;;;1987911;71;21162;-86
2023/05/19 11:23:14;;;;;;;23.42;20.80;;;35.80;60.60;;;;;;1982602;71;21061;-87
2023/05/19 11:25:50;;;;;;;26.17;21.65;;;35.80;60.50;;;;;;1956953;71;21139;-86
2023/05/19 11:28:19;;;;;;;26.68;22.55;;;35.70;60.70;;;;;;1983114;71;21136;-88
2023/05/19 11:30:54;;;;;;;25.82;21.37;;;35.60;60.80;;;;;;1979961;71;21072;-89
2023/05/19 11:33:29;;;;;;;27.90;20.68;;;35.60;61.00;;;;;;1969803;71;21120;-87
2023/05/19 11:36:00;;;;;;;28.40;21.30;;;35.60;60.90;;;;;;1978682;71;21056;-86
2023/05/19 11:38:31;;;;;;;27.85;21.23;;;35.60;60.20;;;;;;1973086;71;21139;-87
2023/05/19 11:41:04;;;;;;;28.32;20.85;;;35.60;61.00;;;;;;1962979;72;21117;-88
2023/05/19 11:43:35;;;;;;;27.98;21.48;;;35.50;61.00;;;;;;1995112;71;21099;-88
2023/05/19 11:46:06;;;;;;;28.83;22.80;;;35.50;61.10;;;;;;1946333;72;21102;-88
2023/05/19 11:48:38;;;;;;;31.68;23.87;;;35.50;61.20;;;;;;1964009;72;21080;-88
2023/05/19 11:51:09;;;;;;;29.87;22.95;;;35.50;62.40;;;;;;1964646;71;21167;-88
2023/05/19 11:53:40;;;;;;;31.95;23.75;;;35.50;61.40;;;;;;1960118;72;21146;-87
2023/05/19 11:56:13;;;;;;;32.85;24.12;;;35.40;61.30;;;;;;1981995;70;21115;-88
2023/05/19 11:58:45;;;;;;;35.05;24.20;;;35.40;61.40;;;;;;1970119;71;21168;-88
2023/05/19 12:01:16;;;;;;;35.58;23.77;;;35.40;61.50;;;;;;1964161;71;21221;-88
2023/05/19 12:03:46;;;;;;;31.85;25.45;;;35.40;61.60;;;;;;1973800;70;21139;-88
2023/05/19 12:06:18;;;;;;;32.75;24.30;;;35.40;61.60;;;;;;1957803;72;21601;-89
2023/05/19 12:08:54;;;;;;;32.67;24.90;;;35.40;61.80;;;;;;1972610;72;21132;-88
2023/05/19 12:11:26;;;;;;;35.38;25.68;;;35.30;61.80;;;;;;1958199;72;21185;-89
2023/05/19 12:14:01;;;;;;;36.53;28.25;;;35.30;61.80;;;;;;1950421;72;21152;-89
2023/05/19 12:16:35;;;;;;;42.43;29.45;;;35.30;62.10;;;;;;1953832;72;21607;-89
2023/05/19 12:19:24;;;;;;;;;;;;;;;;;;;;;
2023/05/19 12:22:10;;;;;;;;;;;;;;;;;;;;;
2023/05/19 12:30:52;;;;;;;48.78;37.50;;;35.20;63.40;;;;;;1745707;77;20576;-87
2023/05/19 12:33:27;;;;;;;52.80;35.68;;;35.20;63.90;;;;;;1937421;72;21126;-87
2023/05/19 12:35:58;;;;;;;45.78;35.70;;;35.10;64.10;;;;;;1960765;72;21150;-88
2023/05/19 12:38:29;;;;;;;46.65;35.05;;;35.10;64.10;;;;;;1956754;72;21094;-87
2023/05/19 12:41:00;;;;;;;50.95;37.13;;;35.10;64.20;;;;;;1967654;71;21179;-87
2023/05/19 12:43:32;;;;;;;47.80;37.58;;;35.10;64.40;;;;;;1955206;71;21223;-90
2023/05/19 12:46:11;;;;;;;50.28;37.80;;;35.10;64.60;;;;;;1921173;72;21156;-88
2023/05/19 12:48:45;;;;;;;51.77;38.28;;;35.00;64.90;;;;;;1988576;71;21151;-89
2023/05/19 12:51:20;;;;;;;51.58;38.88;;;35.00;65.00;;;;;;1969727;71;21174;-88
2023/05/19 12:53:51;;;;;;;48.03;37.50;;;35.00;65.00;;;;;;1987203;71;21130;-89
2023/05/19 12:56:30;;;;;;;51.80;35.50;;;35.00;65.30;;;;;;1973189;70;21518;-90
2023/05/19 12:58:59;;;;;;;48.15;35.05;;;35.00;65.30;;;;;;1991005;71;21060;-87
2023/05/19 13:01:30;;;;;;;41.80;33.58;;;35.00;65.10;;;;;;1980216;70;21091;-88
2023/05/19 13:04:01;;;;;;;45.92;34.30;;;35.00;65.10;;;;;;1989109;71;21092;-90
2023/05/19 13:06:33;;;;;;;49.08;32.38;;;35.00;65.60;;;;;;1994807;71;21120;-88
2023/05/19 13:09:07;;;;;;;44.70;31.62;;;35.00;65.40;;;;;;1991307;70;22076;-89
2023/05/19 13:11:37;;;;;;;43.60;31.17;;;35.00;65.80;;;;;;1990442;70;21111;-87
2023/05/19 13:14:09;;;;;;;42.70;30.88;;;35.00;66.00;;;;;;1950099;72;21127;-89
2023/05/19 13:16:41;;;;;;;45.50;30.05;;;35.00;65.90;;;;;;1976443;71;21119;-87